sensor_id;sensor_type;location;lat;lon;timestamp;temperature;humidity
14771;DHT22;7477;45.222;5.688;2023-07-13T00:02:56;22.30;99.90
14771;DHT22;7477;45.222;5.688;2023-07-13T00:06:16;22.30;99.90
14771;DHT22;7477;45.222;5.688;2023-07-13T00:09:35;22.20;99.90
14771;DHT22;7477;45.222;5.688;2023-07-13T00:12:54;22.40;99.90
14771;DHT22;7477;45.222;5.688;2023-07-13T00:16:14;22.50;99.90
14771;DHT22;7477;45.222;5.688;2023-07-13T00:19:33;22.50;99.90
14771;DHT22;7477;45.222;5.688;2023-07-13T00:22:54;22.30;99.90
14771;DHT22;7477;45.222;5.688;2023-07-13T00:26:14;22.20;99.90
14771;DHT22;7477;45.222;5.688;2023-07-13T00:29:33;22.20;99.90
14771;DHT22;7477;45.222;5.688;2023-07-13T00:32:53;22.00;99.90
14771;DHT22;7477;45.222;5.688;2023-07-13T00:36:12;21.90;99.90
14771;DHT22;7477;45.222;5.688;2023-07-13T00:39:35;21.90;99.90
14771;DHT22;7477;45.222;5.688;2023-07-13T00:42:58;22.00;99.90
14771;DHT22;7477;45.222;5.688;2023-07-13T00:49:37;22.10;99.90
14771;DHT22;7477;45.222;5.688;2023-07-13T00:52:56;22.10;99.90
14771;DHT22;7477;45.222;5.688;2023-07-13T00:56:17;22.00;99.90
14771;DHT22;7477;45.222;5.688;2023-07-13T00:59:38;22.00;99.90
14771;DHT22;7477;45.222;5.688;2023-07-13T01:02:59;21.90;99.90
14771;DHT22;7477;45.222;5.688;2023-07-13T01:06:18;21.80;99.90
14771;DHT22;7477;45.222;5.688;2023-07-13T01:09:37;21.70;99.90
14771;DHT22;7477;45.222;5.688;2023-07-13T01:12:56;21.70;99.90
14771;DHT22;7477;45.222;5.688;2023-07-13T01:16:28;21.80;99.90
14771;DHT22;7477;45.222;5.688;2023-07-13T01:19:48;21.80;99.90
14771;DHT22;7477;45.222;5.688;2023-07-13T01:23:10;21.90;99.90
14771;DHT22;7477;45.222;5.688;2023-07-13T01:26:30;21.70;99.90
14771;DHT22;7477;45.222;5.688;2023-07-13T01:29:49;21.70;99.90
14771;DHT22;7477;45.222;5.688;2023-07-13T01:33:09;21.70;99.90
14771;DHT22;7477;45.222;5.688;2023-07-13T01:36:28;21.90;99.90
14771;DHT22;7477;45.222;5.688;2023-07-13T01:39:47;21.70;99.90
14771;DHT22;7477;45.222;5.688;2023-07-13T01:43:07;21.60;99.90
14771;DHT22;7477;45.222;5.688;2023-07-13T01:46:26;21.60;99.90
14771;DHT22;7477;45.222;5.688;2023-07-13T01:49:45;21.60;99.90
14771;DHT22;7477;45.222;5.688;2023-07-13T01:53:06;21.50;99.90
14771;DHT22;7477;45.222;5.688;2023-07-13T01:56:25;21.50;99.90
14771;DHT22;7477;45.222;5.688;2023-07-13T01:59:44;21.50;99.90
14771;DHT22;7477;45.222;5.688;2023-07-13T02:03:04;21.60;99.90
14771;DHT22;7477;45.222;5.688;2023-07-13T02:06:23;21.80;99.90
14771;DHT22;7477;45.222;5.688;2023-07-13T02:09:42;21.60;99.90
14771;DHT22;7477;45.222;5.688;2023-07-13T02:13:01;21.80;99.90
14771;DHT22;7477;45.222;5.688;2023-07-13T02:16:20;22.00;99.90
14771;DHT22;7477;45.222;5.688;2023-07-13T02:19:39;21.70;99.90
14771;DHT22;7477;45.222;5.688;2023-07-13T02:22:59;21.70;99.90
14771;DHT22;7477;45.222;5.688;2023-07-13T02:26:18;21.70;99.90
14771;DHT22;7477;45.222;5.688;2023-07-13T02:29:37;21.80;99.90
14771;DHT22;7477;45.222;5.688;2023-07-13T02:32:57;21.60;99.90
14771;DHT22;7477;45.222;5.688;2023-07-13T02:36:16;21.40;99.90
14771;DHT22;7477;45.222;5.688;2023-07-13T02:39:35;21.40;99.90
14771;DHT22;7477;45.222;5.688;2023-07-13T02:42:55;21.30;99.90
14771;DHT22;7477;45.222;5.688;2023-07-13T02:46:15;21.80;99.90
14771;DHT22;7477;45.222;5.688;2023-07-13T02:49:34;21.50;99.90
14771;DHT22;7477;45.222;5.688;2023-07-13T02:52:53;21.30;99.90
14771;DHT22;7477;45.222;5.688;2023-07-13T02:56:12;21.10;99.90
14771;DHT22;7477;45.222;5.688;2023-07-13T02:59:32;21.00;99.90
14771;DHT22;7477;45.222;5.688;2023-07-13T03:02:51;21.10;99.90
14771;DHT22;7477;45.222;5.688;2023-07-13T03:06:12;21.00;99.90
14771;DHT22;7477;45.222;5.688;2023-07-13T03:09:33;21.00;99.90
14771;DHT22;7477;45.222;5.688;2023-07-13T03:12:53;20.80;99.90
14771;DHT22;7477;45.222;5.688;2023-07-13T03:16:12;20.90;99.90
14771;DHT22;7477;45.222;5.688;2023-07-13T03:19:31;20.90;99.90
14771;DHT22;7477;45.222;5.688;2023-07-13T03:22:50;20.80;99.90
14771;DHT22;7477;45.222;5.688;2023-07-13T03:26:16;20.80;99.90
14771;DHT22;7477;45.222;5.688;2023-07-13T03:29:36;20.80;99.90
14771;DHT22;7477;45.222;5.688;2023-07-13T03:32:55;20.80;99.90
14771;DHT22;7477;45.222;5.688;2023-07-13T03:36:17;20.80;99.90
14771;DHT22;7477;45.222;5.688;2023-07-13T03:39:39;20.90;99.90
14771;DHT22;7477;45.222;5.688;2023-07-13T03:42:59;20.90;99.90
14771;DHT22;7477;45.222;5.688;2023-07-13T03:46:18;21.10;99.90
14771;DHT22;7477;45.222;5.688;2023-07-13T03:49:38;20.90;99.90
14771;DHT22;7477;45.222;5.688;2023-07-13T03:53:00;21.10;99.90
14771;DHT22;7477;45.222;5.688;2023-07-13T03:56:19;20.90;99.90
14771;DHT22;7477;45.222;5.688;2023-07-13T03:59:39;20.80;99.90
14771;DHT22;7477;45.222;5.688;2023-07-13T04:02:58;20.80;99.90
14771;DHT22;7477;45.222;5.688;2023-07-13T04:06:23;20.80;99.90
14771;DHT22;7477;45.222;5.688;2023-07-13T04:09:43;20.80;99.90
14771;DHT22;7477;45.222;5.688;2023-07-13T04:13:03;20.80;99.90
14771;DHT22;7477;45.222;5.688;2023-07-13T04:16:22;20.80;99.90
14771;DHT22;7477;45.222;5.688;2023-07-13T04:19:41;21.30;99.90
14771;DHT22;7477;45.222;5.688;2023-07-13T04:23:00;21.40;99.90
14771;DHT22;7477;45.222;5.688;2023-07-13T04:26:20;21.40;99.90
14771;DHT22;7477;45.222;5.688;2023-07-13T04:29:40;21.60;99.90
14771;DHT22;7477;45.222;5.688;2023-07-13T04:32:59;21.50;99.90
14771;DHT22;7477;45.222;5.688;2023-07-13T04:36:18;21.20;99.90
14771;DHT22;7477;45.222;5.688;2023-07-13T04:39:37;21.40;99.90
14771;DHT22;7477;45.222;5.688;2023-07-13T04:42:56;21.80;99.90
14771;DHT22;7477;45.222;5.688;2023-07-13T04:46:17;21.80;99.90
14771;DHT22;7477;45.222;5.688;2023-07-13T04:49:39;22.20;99.90
14771;DHT22;7477;45.222;5.688;2023-07-13T04:52:59;21.60;99.90
14771;DHT22;7477;45.222;5.688;2023-07-13T04:56:18;21.60;99.90
14771;DHT22;7477;45.222;5.688;2023-07-13T04:59:38;21.60;99.90
14771;DHT22;7477;45.222;5.688;2023-07-13T05:02:58;21.20;99.90
14771;DHT22;7477;45.222;5.688;2023-07-13T05:06:18;21.50;99.90
14771;DHT22;7477;45.222;5.688;2023-07-13T05:09:37;21.20;99.90
14771;DHT22;7477;45.222;5.688;2023-07-13T05:12:56;21.30;99.90
14771;DHT22;7477;45.222;5.688;2023-07-13T05:16:15;22.10;99.90
14771;DHT22;7477;45.222;5.688;2023-07-13T05:19:35;22.10;99.90
14771;DHT22;7477;45.222;5.688;2023-07-13T05:22:54;21.20;99.90
14771;DHT22;7477;45.222;5.688;2023-07-13T05:26:14;20.90;99.90
14771;DHT22;7477;45.222;5.688;2023-07-13T05:29:33;21.10;99.90
14771;DHT22;7477;45.222;5.688;2023-07-13T05:32:52;20.70;99.90
14771;DHT22;7477;45.222;5.688;2023-07-13T05:36:11;20.10;99.90
14771;DHT22;7477;45.222;5.688;2023-07-13T05:39:30;20.00;99.90
14771;DHT22;7477;45.222;5.688;2023-07-13T05:42:49;19.70;99.90
14771;DHT22;7477;45.222;5.688;2023-07-13T05:46:08;19.70;99.90
14771;DHT22;7477;45.222;5.688;2023-07-13T05:49:27;19.60;99.90
14771;DHT22;7477;45.222;5.688;2023-07-13T05:52:47;19.60;99.90
14771;DHT22;7477;45.222;5.688;2023-07-13T05:56:06;19.50;99.90
14771;DHT22;7477;45.222;5.688;2023-07-13T05:59:25;19.50;99.90
14771;DHT22;7477;45.222;5.688;2023-07-13T06:02:44;19.50;99.90
14771;DHT22;7477;45.222;5.688;2023-07-13T06:06:08;19.60;99.90
14771;DHT22;7477;45.222;5.688;2023-07-13T06:09:27;19.60;99.90
14771;DHT22;7477;45.222;5.688;2023-07-13T06:12:47;19.70;99.90
14771;DHT22;7477;45.222;5.688;2023-07-13T06:16:07;19.50;99.90
14771;DHT22;7477;45.222;5.688;2023-07-13T06:19:27;19.60;99.90
14771;DHT22;7477;45.222;5.688;2023-07-13T06:22:47;19.80;99.90
14771;DHT22;7477;45.222;5.688;2023-07-13T06:26:07;19.90;99.90
14771;DHT22;7477;45.222;5.688;2023-07-13T06:29:27;20.30;99.90
14771;DHT22;7477;45.222;5.688;2023-07-13T06:32:46;20.70;99.90
14771;DHT22;7477;45.222;5.688;2023-07-13T06:36:07;20.30;99.90
14771;DHT22;7477;45.222;5.688;2023-07-13T06:39:27;20.10;99.90
14771;DHT22;7477;45.222;5.688;2023-07-13T06:42:46;20.00;99.90
14771;DHT22;7477;45.222;5.688;2023-07-13T06:46:05;20.10;99.90
14771;DHT22;7477;45.222;5.688;2023-07-13T06:49:24;20.10;99.90
14771;DHT22;7477;45.222;5.688;2023-07-13T06:52:44;20.30;99.90
14771;DHT22;7477;45.222;5.688;2023-07-13T06:56:04;20.20;99.90
14771;DHT22;7477;45.222;5.688;2023-07-13T06:59:24;20.20;99.90
14771;DHT22;7477;45.222;5.688;2023-07-13T07:02:43;20.20;99.90
14771;DHT22;7477;45.222;5.688;2023-07-13T07:06:10;20.40;99.90
14771;DHT22;7477;45.222;5.688;2023-07-13T07:09:31;20.40;99.90
14771;DHT22;7477;45.222;5.688;2023-07-13T07:12:50;20.40;99.90
14771;DHT22;7477;45.222;5.688;2023-07-13T07:16:10;20.50;99.90
14771;DHT22;7477;45.222;5.688;2023-07-13T07:19:30;20.60;99.90
14771;DHT22;7477;45.222;5.688;2023-07-13T07:22:49;20.80;99.90
14771;DHT22;7477;45.222;5.688;2023-07-13T07:26:09;20.80;99.90
14771;DHT22;7477;45.222;5.688;2023-07-13T07:29:29;21.00;99.90
14771;DHT22;7477;45.222;5.688;2023-07-13T07:32:48;20.80;99.90
14771;DHT22;7477;45.222;5.688;2023-07-13T07:36:07;21.00;99.90
14771;DHT22;7477;45.222;5.688;2023-07-13T07:39:26;21.10;99.90
14771;DHT22;7477;45.222;5.688;2023-07-13T07:42:46;21.60;99.90
14771;DHT22;7477;45.222;5.688;2023-07-13T07:46:05;21.80;99.90
14771;DHT22;7477;45.222;5.688;2023-07-13T07:49:25;21.70;99.90
14771;DHT22;7477;45.222;5.688;2023-07-13T07:52:45;21.80;99.90
14771;DHT22;7477;45.222;5.688;2023-07-13T07:56:04;21.90;99.90
14771;DHT22;7477;45.222;5.688;2023-07-13T07:59:23;22.30;99.90
14771;DHT22;7477;45.222;5.688;2023-07-13T08:02:43;21.60;99.90
14771;DHT22;7477;45.222;5.688;2023-07-13T08:06:03;21.20;99.90
14771;DHT22;7477;45.222;5.688;2023-07-13T08:09:22;21.00;99.90
14771;DHT22;7477;45.222;5.688;2023-07-13T08:12:41;21.20;99.90
14771;DHT22;7477;45.222;5.688;2023-07-13T08:16:03;21.20;99.90
14771;DHT22;7477;45.222;5.688;2023-07-13T08:19:23;21.30;99.90
14771;DHT22;7477;45.222;5.688;2023-07-13T08:22:42;21.80;99.90
14771;DHT22;7477;45.222;5.688;2023-07-13T08:26:02;21.70;99.90
14771;DHT22;7477;45.222;5.688;2023-07-13T08:29:23;21.80;99.90
14771;DHT22;7477;45.222;5.688;2023-07-13T08:32:42;21.90;99.90
14771;DHT22;7477;45.222;5.688;2023-07-13T08:36:02;21.80;99.90
14771;DHT22;7477;45.222;5.688;2023-07-13T08:39:22;22.10;99.90
14771;DHT22;7477;45.222;5.688;2023-07-13T08:42:54;22.10;99.90
14771;DHT22;7477;45.222;5.688;2023-07-13T08:46:36;22.20;99.90
14771;DHT22;7477;45.222;5.688;2023-07-13T08:49:58;22.40;99.90
14771;DHT22;7477;45.222;5.688;2023-07-13T08:53:18;22.70;99.90
14771;DHT22;7477;45.222;5.688;2023-07-13T08:56:38;22.40;99.90
14771;DHT22;7477;45.222;5.688;2023-07-13T08:59:57;22.70;99.90
14771;DHT22;7477;45.222;5.688;2023-07-13T09:03:23;22.60;99.90
14771;DHT22;7477;45.222;5.688;2023-07-13T09:07:15;22.70;99.90
14771;DHT22;7477;45.222;5.688;2023-07-13T09:10:50;22.80;99.90
14771;DHT22;7477;45.222;5.688;2023-07-13T09:14:34;22.50;99.90
14771;DHT22;7477;45.222;5.688;2023-07-13T09:17:58;22.50;99.90
14771;DHT22;7477;45.222;5.688;2023-07-13T09:21:23;22.50;99.90
14771;DHT22;7477;45.222;5.688;2023-07-13T09:25:18;22.60;99.90
14771;DHT22;7477;45.222;5.688;2023-07-13T09:28:43;22.70;99.90
14771;DHT22;7477;45.222;5.688;2023-07-13T09:32:06;22.80;99.90
14771;DHT22;7477;45.222;5.688;2023-07-13T09:35:29;22.80;99.90
14771;DHT22;7477;45.222;5.688;2023-07-13T09:38:52;22.80;99.90
14771;DHT22;7477;45.222;5.688;2023-07-13T09:42:20;23.00;99.90
14771;DHT22;7477;45.222;5.688;2023-07-13T09:45:41;22.70;99.90
14771;DHT22;7477;45.222;5.688;2023-07-13T09:49:04;22.70;99.90
14771;DHT22;7477;45.222;5.688;2023-07-13T09:52:23;22.80;99.90
14771;DHT22;7477;45.222;5.688;2023-07-13T09:55:45;22.80;99.90
14771;DHT22;7477;45.222;5.688;2023-07-13T09:59:04;23.00;99.90
14771;DHT22;7477;45.222;5.688;2023-07-13T10:02:36;23.00;99.90
14771;DHT22;7477;45.222;5.688;2023-07-13T10:06:06;22.90;99.90
14771;DHT22;7477;45.222;5.688;2023-07-13T10:09:28;23.10;99.90
14771;DHT22;7477;45.222;5.688;2023-07-13T10:12:48;23.20;99.90
14771;DHT22;7477;45.222;5.688;2023-07-13T10:16:09;23.10;99.90
14771;DHT22;7477;45.222;5.688;2023-07-13T10:19:31;23.20;99.90
14771;DHT22;7477;45.222;5.688;2023-07-13T10:23:21;23.30;99.90
14771;DHT22;7477;45.222;5.688;2023-07-13T10:30:39;23.10;99.90
14771;DHT22;7477;45.222;5.688;2023-07-13T10:33:59;23.30;99.90
14771;DHT22;7477;45.222;5.688;2023-07-13T10:37:22;23.40;99.90
14771;DHT22;7477;45.222;5.688;2023-07-13T10:40:48;23.60;99.90
14771;DHT22;7477;45.222;5.688;2023-07-13T10:44:21;23.40;99.90
14771;DHT22;7477;45.222;5.688;2023-07-13T10:47:40;23.20;99.90
14771;DHT22;7477;45.222;5.688;2023-07-13T10:51:00;23.20;99.90
14771;DHT22;7477;45.222;5.688;2023-07-13T10:54:26;23.30;99.90
14771;DHT22;7477;45.222;5.688;2023-07-13T10:57:46;23.10;99.90
14771;DHT22;7477;45.222;5.688;2023-07-13T11:04:29;23.50;99.90
14771;DHT22;7477;45.222;5.688;2023-07-13T11:08:36;23.70;99.90
14771;DHT22;7477;45.222;5.688;2023-07-13T11:11:58;23.50;99.90
14771;DHT22;7477;45.222;5.688;2023-07-13T11:15:31;23.60;99.90
14771;DHT22;7477;45.222;5.688;2023-07-13T11:18:53;23.70;99.90
14771;DHT22;7477;45.222;5.688;2023-07-13T11:22:48;23.60;99.90
14771;DHT22;7477;45.222;5.688;2023-07-13T11:37:00;23.60;99.90
14771;DHT22;7477;45.222;5.688;2023-07-13T11:40:28;23.50;99.90
14771;DHT22;7477;45.222;5.688;2023-07-13T11:43:53;23.50;99.90
14771;DHT22;7477;45.222;5.688;2023-07-13T11:47:23;23.50;99.90
14771;DHT22;7477;45.222;5.688;2023-07-13T11:50:57;23.70;99.90
14771;DHT22;7477;45.222;5.688;2023-07-13T11:54:28;23.60;99.90
14771;DHT22;7477;45.222;5.688;2023-07-13T11:57:58;23.80;99.90
14771;DHT22;7477;45.222;5.688;2023-07-13T12:01:26;23.80;99.90
14771;DHT22;7477;45.222;5.688;2023-07-13T12:04:49;23.60;99.90
14771;DHT22;7477;45.222;5.688;2023-07-13T12:08:11;23.70;99.90
14771;DHT22;7477;45.222;5.688;2023-07-13T12:11:34;23.80;99.90
14771;DHT22;7477;45.222;5.688;2023-07-13T12:14:53;23.80;99.90
14771;DHT22;7477;45.222;5.688;2023-07-13T12:18:30;23.80;99.90
14771;DHT22;7477;45.222;5.688;2023-07-13T12:21:52;23.80;99.90
14771;DHT22;7477;45.222;5.688;2023-07-13T12:25:12;23.90;99.90
14771;DHT22;7477;45.222;5.688;2023-07-13T12:28:35;23.80;99.90
14771;DHT22;7477;45.222;5.688;2023-07-13T12:31:55;24.00;99.90
14771;DHT22;7477;45.222;5.688;2023-07-13T12:35:17;24.10;99.90
14771;DHT22;7477;45.222;5.688;2023-07-13T12:38:37;24.10;99.90
14771;DHT22;7477;45.222;5.688;2023-07-13T12:45:58;24.00;99.90
14771;DHT22;7477;45.222;5.688;2023-07-13T12:49:21;24.00;99.90
14771;DHT22;7477;45.222;5.688;2023-07-13T12:52:43;23.90;99.90
14771;DHT22;7477;45.222;5.688;2023-07-13T12:56:03;24.00;99.90
14771;DHT22;7477;45.222;5.688;2023-07-13T12:59:24;24.00;99.90
14771;DHT22;7477;45.222;5.688;2023-07-13T13:02:45;24.10;99.90
14771;DHT22;7477;45.222;5.688;2023-07-13T13:06:06;24.10;99.90
14771;DHT22;7477;45.222;5.688;2023-07-13T13:09:25;24.10;99.90
14771;DHT22;7477;45.222;5.688;2023-07-13T13:12:45;24.10;99.90
14771;DHT22;7477;45.222;5.688;2023-07-13T13:16:31;24.00;99.30
14771;DHT22;7477;45.222;5.688;2023-07-13T13:19:51;24.10;99.90
14771;DHT22;7477;45.222;5.688;2023-07-13T13:23:15;24.10;99.70
14771;DHT22;7477;45.222;5.688;2023-07-13T13:26:36;24.10;99.50
14771;DHT22;7477;45.222;5.688;2023-07-13T13:29:57;24.20;98.90
14771;DHT22;7477;45.222;5.688;2023-07-13T13:33:18;24.10;99.40
14771;DHT22;7477;45.222;5.688;2023-07-13T13:36:38;24.10;99.10
14771;DHT22;7477;45.222;5.688;2023-07-13T13:39:58;24.10;99.10
14771;DHT22;7477;45.222;5.688;2023-07-13T13:43:27;24.20;98.50
14771;DHT22;7477;45.222;5.688;2023-07-13T13:46:48;24.20;98.50
14771;DHT22;7477;45.222;5.688;2023-07-13T13:50:16;24.30;98.70
14771;DHT22;7477;45.222;5.688;2023-07-13T13:53:36;24.30;97.60
14771;DHT22;7477;45.222;5.688;2023-07-13T13:56:55;24.30;97.30
14771;DHT22;7477;45.222;5.688;2023-07-13T14:00:17;24.30;97.20
14771;DHT22;7477;45.222;5.688;2023-07-13T14:03:36;24.30;97.80
14771;DHT22;7477;45.222;5.688;2023-07-13T14:06:56;24.40;97.40
14771;DHT22;7477;45.222;5.688;2023-07-13T14:10:17;24.40;97.70
14771;DHT22;7477;45.222;5.688;2023-07-13T14:13:41;24.40;97.70
14771;DHT22;7477;45.222;5.688;2023-07-13T14:17:01;24.50;96.60
14771;DHT22;7477;45.222;5.688;2023-07-13T14:20:22;24.50;96.90
14771;DHT22;7477;45.222;5.688;2023-07-13T14:23:44;24.50;96.90
14771;DHT22;7477;45.222;5.688;2023-07-13T14:27:04;24.50;96.70
14771;DHT22;7477;45.222;5.688;2023-07-13T14:30:24;24.50;97.00
14771;DHT22;7477;45.222;5.688;2023-07-13T14:33:44;24.60;96.70
14771;DHT22;7477;45.222;5.688;2023-07-13T14:37:04;24.60;96.20
14771;DHT22;7477;45.222;5.688;2023-07-13T14:40:30;24.60;96.00
14771;DHT22;7477;45.222;5.688;2023-07-13T14:43:49;24.60;95.50
14771;DHT22;7477;45.222;5.688;2023-07-13T14:47:09;24.70;95.10
14771;DHT22;7477;45.222;5.688;2023-07-13T14:50:31;24.70;96.00
14771;DHT22;7477;45.222;5.688;2023-07-13T14:53:51;24.70;95.10
14771;DHT22;7477;45.222;5.688;2023-07-13T14:57:12;24.70;94.70
14771;DHT22;7477;45.222;5.688;2023-07-13T15:00:32;24.80;95.30
14771;DHT22;7477;45.222;5.688;2023-07-13T15:03:52;24.80;95.40
14771;DHT22;7477;45.222;5.688;2023-07-13T15:07:12;24.80;95.20
14771;DHT22;7477;45.222;5.688;2023-07-13T15:10:35;24.80;94.90
14771;DHT22;7477;45.222;5.688;2023-07-13T15:13:55;24.80;94.90
14771;DHT22;7477;45.222;5.688;2023-07-13T15:17:31;24.90;94.20
14771;DHT22;7477;45.222;5.688;2023-07-13T15:20:52;24.90;93.70
14771;DHT22;7477;45.222;5.688;2023-07-13T15:24:12;25.00;94.20
14771;DHT22;7477;45.222;5.688;2023-07-13T15:27:32;24.90;94.30
14771;DHT22;7477;45.222;5.688;2023-07-13T15:30:51;25.00;93.80
14771;DHT22;7477;45.222;5.688;2023-07-13T15:34:15;25.00;94.00
14771;DHT22;7477;45.222;5.688;2023-07-13T15:37:35;24.90;93.80
14771;DHT22;7477;45.222;5.688;2023-07-13T15:40:55;25.10;93.50
14771;DHT22;7477;45.222;5.688;2023-07-13T15:44:30;25.20;92.80
14771;DHT22;7477;45.222;5.688;2023-07-13T15:47:51;25.10;93.70
14771;DHT22;7477;45.222;5.688;2023-07-13T15:51:15;25.10;93.70
14771;DHT22;7477;45.222;5.688;2023-07-13T15:54:36;25.20;93.40
14771;DHT22;7477;45.222;5.688;2023-07-13T15:57:57;25.20;93.40
14771;DHT22;7477;45.222;5.688;2023-07-13T16:01:17;25.10;93.30
14771;DHT22;7477;45.222;5.688;2023-07-13T16:04:37;25.10;92.80
14771;DHT22;7477;45.222;5.688;2023-07-13T16:07:57;26.70;80.50
14771;DHT22;7477;45.222;5.688;2023-07-13T16:14:41;27.20;76.60
14771;DHT22;7477;45.222;5.688;2023-07-13T16:18:00;27.30;73.90
14771;DHT22;7477;45.222;5.688;2023-07-13T16:21:20;27.30;74.90
14771;DHT22;7477;45.222;5.688;2023-07-13T16:24:39;27.10;73.90
14771;DHT22;7477;45.222;5.688;2023-07-13T16:27:58;26.80;71.30
14771;DHT22;7477;45.222;5.688;2023-07-13T16:31:20;26.70;72.00
14771;DHT22;7477;45.222;5.688;2023-07-13T16:34:41;26.60;71.60
14771;DHT22;7477;45.222;5.688;2023-07-13T16:38:02;26.60;71.00
14771;DHT22;7477;45.222;5.688;2023-07-13T16:41:22;26.50;70.00
14771;DHT22;7477;45.222;5.688;2023-07-13T16:44:41;26.50;71.10
14771;DHT22;7477;45.222;5.688;2023-07-13T16:48:09;26.40;71.60
14771;DHT22;7477;45.222;5.688;2023-07-13T16:51:29;26.40;72.20
14771;DHT22;7477;45.222;5.688;2023-07-13T16:54:51;26.30;72.00
14771;DHT22;7477;45.222;5.688;2023-07-13T16:58:11;26.30;71.30
14771;DHT22;7477;45.222;5.688;2023-07-13T17:01:31;26.20;69.90
14771;DHT22;7477;45.222;5.688;2023-07-13T17:04:50;26.20;70.60
14771;DHT22;7477;45.222;5.688;2023-07-13T17:08:30;26.10;70.80
14771;DHT22;7477;45.222;5.688;2023-07-13T17:11:50;26.20;71.50
14771;DHT22;7477;45.222;5.688;2023-07-13T17:15:12;26.10;70.90
14771;DHT22;7477;45.222;5.688;2023-07-13T17:18:32;26.00;70.10
14771;DHT22;7477;45.222;5.688;2023-07-13T17:21:55;25.90;71.00
14771;DHT22;7477;45.222;5.688;2023-07-13T17:25:14;25.90;71.80
14771;DHT22;7477;45.222;5.688;2023-07-13T17:28:34;25.80;72.30
14771;DHT22;7477;45.222;5.688;2023-07-13T17:31:53;25.80;73.10
14771;DHT22;7477;45.222;5.688;2023-07-13T17:35:28;25.80;72.80
14771;DHT22;7477;45.222;5.688;2023-07-13T17:38:48;25.70;72.70
14771;DHT22;7477;45.222;5.688;2023-07-13T17:42:13;25.50;72.80
14771;DHT22;7477;45.222;5.688;2023-07-13T17:45:32;25.50;73.20
14771;DHT22;7477;45.222;5.688;2023-07-13T17:48:52;25.40;73.00
14771;DHT22;7477;45.222;5.688;2023-07-13T17:52:12;25.40;73.60
14771;DHT22;7477;45.222;5.688;2023-07-13T17:55:32;25.30;73.20
14771;DHT22;7477;45.222;5.688;2023-07-13T17:58:53;25.30;73.90
14771;DHT22;7477;45.222;5.688;2023-07-13T18:02:18;25.30;73.80
14771;DHT22;7477;45.222;5.688;2023-07-13T18:05:38;25.30;73.80
14771;DHT22;7477;45.222;5.688;2023-07-13T18:09:00;25.30;74.80
14771;DHT22;7477;45.222;5.688;2023-07-13T18:12:20;25.30;74.90
14771;DHT22;7477;45.222;5.688;2023-07-13T18:15:40;25.30;74.60
14771;DHT22;7477;45.222;5.688;2023-07-13T18:19:01;25.20;74.20
14771;DHT22;7477;45.222;5.688;2023-07-13T18:22:21;25.10;74.10
14771;DHT22;7477;45.222;5.688;2023-07-13T18:25:40;25.10;73.90
14771;DHT22;7477;45.222;5.688;2023-07-13T18:29:00;25.10;74.10
14771;DHT22;7477;45.222;5.688;2023-07-13T18:32:21;25.00;74.20
14771;DHT22;7477;45.222;5.688;2023-07-13T18:35:40;24.80;73.80
14771;DHT22;7477;45.222;5.688;2023-07-13T18:38:59;24.80;73.90
14771;DHT22;7477;45.222;5.688;2023-07-13T18:42:19;24.80;75.10
14771;DHT22;7477;45.222;5.688;2023-07-13T18:45:39;24.70;74.60
14771;DHT22;7477;45.222;5.688;2023-07-13T18:48:59;24.60;75.00
14771;DHT22;7477;45.222;5.688;2023-07-13T18:52:20;24.60;75.10
14771;DHT22;7477;45.222;5.688;2023-07-13T18:55:39;24.50;75.00
14771;DHT22;7477;45.222;5.688;2023-07-13T18:58:58;24.40;75.00
14771;DHT22;7477;45.222;5.688;2023-07-13T19:02:18;24.40;75.10
14771;DHT22;7477;45.222;5.688;2023-07-13T19:05:38;24.30;75.50
14771;DHT22;7477;45.222;5.688;2023-07-13T19:09:01;24.30;75.50
14771;DHT22;7477;45.222;5.688;2023-07-13T19:12:23;24.20;75.10
14771;DHT22;7477;45.222;5.688;2023-07-13T19:15:45;24.10;74.80
14771;DHT22;7477;45.222;5.688;2023-07-13T19:19:15;24.10;74.80
14771;DHT22;7477;45.222;5.688;2023-07-13T19:22:35;24.00;75.10
14771;DHT22;7477;45.222;5.688;2023-07-13T19:25:59;24.00;75.90
14771;DHT22;7477;45.222;5.688;2023-07-13T19:29:22;23.90;75.80
14771;DHT22;7477;45.222;5.688;2023-07-13T19:32:45;23.80;76.60
14771;DHT22;7477;45.222;5.688;2023-07-13T19:36:10;23.80;77.00
14771;DHT22;7477;45.222;5.688;2023-07-13T19:39:38;23.80;77.90
14771;DHT22;7477;45.222;5.688;2023-07-13T19:42:58;23.60;78.80
14771;DHT22;7477;45.222;5.688;2023-07-13T19:46:37;23.60;77.80
14771;DHT22;7477;45.222;5.688;2023-07-13T19:49:57;23.50;79.00
14771;DHT22;7477;45.222;5.688;2023-07-13T19:53:18;23.50;79.00
14771;DHT22;7477;45.222;5.688;2023-07-13T19:56:39;23.50;78.80
14771;DHT22;7477;45.222;5.688;2023-07-13T19:59:58;23.50;79.40
14771;DHT22;7477;45.222;5.688;2023-07-13T20:03:18;23.30;80.70
14771;DHT22;7477;45.222;5.688;2023-07-13T20:06:38;23.30;80.20
14771;DHT22;7477;45.222;5.688;2023-07-13T20:09:57;23.20;81.00
14771;DHT22;7477;45.222;5.688;2023-07-13T20:13:17;23.30;80.60
14771;DHT22;7477;45.222;5.688;2023-07-13T20:16:39;23.20;79.90
14771;DHT22;7477;45.222;5.688;2023-07-13T20:20:00;23.10;79.30
14771;DHT22;7477;45.222;5.688;2023-07-13T20:23:23;23.10;80.00
14771;DHT22;7477;45.222;5.688;2023-07-13T20:26:46;22.90;78.90
14771;DHT22;7477;45.222;5.688;2023-07-13T20:30:07;23.00;79.10
14771;DHT22;7477;45.222;5.688;2023-07-13T20:33:28;22.90;79.90
14771;DHT22;7477;45.222;5.688;2023-07-13T20:36:49;22.80;80.70
14771;DHT22;7477;45.222;5.688;2023-07-13T20:40:15;22.90;81.10
14771;DHT22;7477;45.222;5.688;2023-07-13T20:43:35;23.00;81.20
14771;DHT22;7477;45.222;5.688;2023-07-13T20:46:55;22.90;82.50
14771;DHT22;7477;45.222;5.688;2023-07-13T20:50:24;23.50;83.80
14771;DHT22;7477;45.222;5.688;2023-07-13T20:53:44;23.30;80.70
14771;DHT22;7477;45.222;5.688;2023-07-13T20:57:04;23.10;81.00
14771;DHT22;7477;45.222;5.688;2023-07-13T21:00:26;22.90;84.30
14771;DHT22;7477;45.222;5.688;2023-07-13T21:03:47;23.00;81.30
14771;DHT22;7477;45.222;5.688;2023-07-13T21:07:16;22.80;82.20
14771;DHT22;7477;45.222;5.688;2023-07-13T21:10:37;23.10;83.20
14771;DHT22;7477;45.222;5.688;2023-07-13T21:13:57;22.90;82.30
14771;DHT22;7477;45.222;5.688;2023-07-13T21:17:16;22.80;82.90
14771;DHT22;7477;45.222;5.688;2023-07-13T21:20:37;22.60;82.30
14771;DHT22;7477;45.222;5.688;2023-07-13T21:23:56;22.50;83.10
14771;DHT22;7477;45.222;5.688;2023-07-13T21:27:15;22.50;83.40
14771;DHT22;7477;45.222;5.688;2023-07-13T21:30:39;22.70;84.80
14771;DHT22;7477;45.222;5.688;2023-07-13T21:34:12;22.60;83.00
14771;DHT22;7477;45.222;5.688;2023-07-13T21:37:32;22.20;83.70
14771;DHT22;7477;45.222;5.688;2023-07-13T21:40:54;22.20;84.10
14771;DHT22;7477;45.222;5.688;2023-07-13T21:44:24;22.00;84.40
14771;DHT22;7477;45.222;5.688;2023-07-13T21:47:44;21.90;84.40
14771;DHT22;7477;45.222;5.688;2023-07-13T21:51:29;21.90;84.70
14771;DHT22;7477;45.222;5.688;2023-07-13T21:54:54;21.90;85.00
14771;DHT22;7477;45.222;5.688;2023-07-13T21:58:34;21.80;84.90
14771;DHT22;7477;45.222;5.688;2023-07-13T22:01:54;21.80;85.10
14771;DHT22;7477;45.222;5.688;2023-07-13T22:05:16;21.80;85.20